createdAt,value
2022-07-29T00:01:49.497Z,19.01
2022-07-29T00:04:18.078Z,19.19
2022-07-29T00:06:46.441Z,19.15
2022-07-29T00:09:14.505Z,19.21
2022-07-29T00:11:42.605Z,19.29
2022-07-29T00:14:10.801Z,19.42
2022-07-29T00:16:38.870Z,19.48
2022-07-29T00:19:10.803Z,19.75
2022-07-29T00:21:39.028Z,19.47
2022-07-29T00:24:07.452Z,19.37
2022-07-29T00:26:35.541Z,19.14
2022-07-29T00:29:33.021Z,19.32
2022-07-29T00:31:55.026Z,18.94
2022-07-29T00:34:42.000Z,18.86
2022-07-29T00:37:10.091Z,18.99
2022-07-29T00:39:40.606Z,18.94
2022-07-29T00:42:09.148Z,18.98
2022-07-29T00:44:40.631Z,18.74
2022-07-29T00:47:09.026Z,18.87
2022-07-29T00:49:39.974Z,18.93
2022-07-29T00:52:09.421Z,18.75
2022-07-29T00:54:43.913Z,18.76
2022-07-29T00:57:14.881Z,18.98
2022-07-29T00:59:43.025Z,19.27
2022-07-29T01:02:11.150Z,19.15
2022-07-29T01:04:41.311Z,19.14
2022-07-29T01:07:09.656Z,19.28
2022-07-29T01:09:46.458Z,19.46
2022-07-29T01:12:17.221Z,19.32
2022-07-29T01:14:46.367Z,19.29
2022-07-29T01:17:16.315Z,19.40
2022-07-29T01:19:51.767Z,19.36
2022-07-29T01:22:37.837Z,19.47
2022-07-29T01:25:21.703Z,19.28
2022-07-29T01:28:02.856Z,19.19
2022-07-29T01:30:34.647Z,19.38
2022-07-29T01:33:05.025Z,19.33
2022-07-29T01:35:35.993Z,19.42
2022-07-29T01:38:07.438Z,19.57
2022-07-29T01:40:37.064Z,19.57
2022-07-29T01:43:07.836Z,19.47
2022-07-29T01:45:40.849Z,19.44
2022-07-29T01:48:15.251Z,19.30
2022-07-29T01:51:00.580Z,19.29
2022-07-29T01:53:34.850Z,18.90
2022-07-29T01:56:07.374Z,18.61
2022-07-29T01:58:37.728Z,18.38
2022-07-29T02:01:10.961Z,18.10
2022-07-29T02:03:40.248Z,17.63
2022-07-29T02:06:09.906Z,17.45
2022-07-29T02:08:38.935Z,17.66
2022-07-29T02:11:07.672Z,17.55
2022-07-29T02:13:36.643Z,17.50
2022-07-29T02:16:08.064Z,17.74
2022-07-29T02:18:38.603Z,17.62
2022-07-29T02:21:06.931Z,17.24
2022-07-29T02:23:45.196Z,17.10
2022-07-29T02:26:19.809Z,16.96
2022-07-29T02:28:48.081Z,16.89
2022-07-29T02:31:17.279Z,16.80
2022-07-29T02:33:47.760Z,16.75
2022-07-29T02:36:17.563Z,16.89
2022-07-29T02:38:52.492Z,16.89
2022-07-29T02:41:21.940Z,17.02
2022-07-29T02:43:52.248Z,17.10
2022-07-29T02:46:29.181Z,17.04
2022-07-29T02:49:04.172Z,17.10
2022-07-29T02:51:43.499Z,17.09
2022-07-29T02:54:16.667Z,17.34
2022-07-29T02:56:46.341Z,17.15
2022-07-29T02:59:16.026Z,17.38
2022-07-29T03:01:45.454Z,17.12
2022-07-29T03:04:16.902Z,16.79
2022-07-29T03:06:45.355Z,16.72
2022-07-29T03:09:14.033Z,16.70
2022-07-29T03:11:49.847Z,16.63
2022-07-29T03:14:21.248Z,16.68
2022-07-29T03:16:52.729Z,16.69
2022-07-29T03:19:22.453Z,16.88
2022-07-29T03:21:50.786Z,16.80
2022-07-29T03:24:32.852Z,17.08
2022-07-29T03:27:00.962Z,17.16
2022-07-29T03:29:32.994Z,17.13
2022-07-29T03:32:04.321Z,17.47
2022-07-29T03:34:37.829Z,17.33
2022-07-29T03:37:07.785Z,17.19
2022-07-29T03:39:38.499Z,17.04
2022-07-29T03:42:08.760Z,17.38
2022-07-29T03:44:37.730Z,17.50
2022-07-29T03:47:07.743Z,17.06
2022-07-29T03:49:38.694Z,17.36
2022-07-29T03:52:09.569Z,17.29
2022-07-29T03:54:37.724Z,17.35
2022-07-29T03:57:07.658Z,17.31
2022-07-29T03:59:36.099Z,17.18
2022-07-29T04:02:04.590Z,17.51
2022-07-29T04:04:34.455Z,17.48
2022-07-29T04:07:03.939Z,17.65
2022-07-29T04:09:32.055Z,17.72
2022-07-29T04:12:03.420Z,18.05
2022-07-29T04:14:36.163Z,17.95
2022-07-29T04:17:05.670Z,17.69
2022-07-29T04:19:34.228Z,17.67
2022-07-29T04:22:02.966Z,18.12
2022-07-29T04:24:32.377Z,17.97
2022-07-29T04:27:00.442Z,17.99
2022-07-29T04:29:28.486Z,17.76
2022-07-29T04:31:58.867Z,17.58
2022-07-29T04:34:28.008Z,17.53
2022-07-29T04:36:56.531Z,17.62
2022-07-29T04:39:24.659Z,17.96
2022-07-29T04:41:56.662Z,17.79
2022-07-29T04:44:28.986Z,17.71
2022-07-29T04:46:58.180Z,17.61
2022-07-29T04:49:26.436Z,16.93
2022-07-29T04:51:54.614Z,16.91
2022-07-29T04:54:22.634Z,16.96
2022-07-29T04:56:50.712Z,17.46
2022-07-29T04:59:20.180Z,18.03
2022-07-29T05:01:48.289Z,18.48
2022-07-29T05:04:16.730Z,18.95
2022-07-29T05:06:47.386Z,18.11
2022-07-29T05:09:15.549Z,17.93
2022-07-29T05:11:43.599Z,17.83
2022-07-29T05:14:11.663Z,17.94
2022-07-29T05:16:41.275Z,18.10
2022-07-29T05:19:13.800Z,18.06
2022-07-29T05:21:46.193Z,18.11
2022-07-29T05:24:14.585Z,18.45
2022-07-29T05:26:44.828Z,18.36
2022-07-29T05:29:43.164Z,18.42
2022-07-29T05:32:02.601Z,19.23
2022-07-29T05:34:30.651Z,18.94
2022-07-29T05:36:58.926Z,19.17
2022-07-29T05:39:47.176Z,19.38
2022-07-29T05:42:15.018Z,19.98
2022-07-29T05:44:43.055Z,21.21
2022-07-29T05:47:12.684Z,21.50
2022-07-29T05:49:40.798Z,20.73
2022-07-29T05:52:08.899Z,20.89
2022-07-29T05:54:36.954Z,20.44
2022-07-29T05:57:07.392Z,19.81
2022-07-29T05:59:37.283Z,20.50
2022-07-29T06:02:06.046Z,20.08
2022-07-29T06:04:35.949Z,20.16
2022-07-29T06:07:04.042Z,20.37
2022-07-29T06:09:35.925Z,20.79
2022-07-29T06:12:04.629Z,21.66
2022-07-29T06:14:33.576Z,21.08
2022-07-29T06:17:02.031Z,20.50
2022-07-29T06:19:32.428Z,20.97
2022-07-29T06:22:01.881Z,20.51
2022-07-29T06:24:29.960Z,20.32
2022-07-29T06:26:58.137Z,20.20
2022-07-29T06:29:26.288Z,20.60
2022-07-29T06:31:54.321Z,20.64
2022-07-29T06:34:22.369Z,21.63
2022-07-29T06:36:51.416Z,21.16
2022-07-29T06:39:22.379Z,21.44
2022-07-29T06:41:51.321Z,21.51
2022-07-29T06:44:20.184Z,21.55
2022-07-29T06:46:52.586Z,21.35
2022-07-29T06:49:20.738Z,21.09
2022-07-29T06:51:48.914Z,21.48
2022-07-29T06:54:17.426Z,22.32
2022-07-29T06:56:47.662Z,23.21
2022-07-29T06:59:15.773Z,23.87
2022-07-29T07:01:44.876Z,22.88
2022-07-29T07:04:15.878Z,22.34
2022-07-29T07:06:45.272Z,23.69
2022-07-29T07:09:13.354Z,22.69
2022-07-29T07:11:43.449Z,22.92
2022-07-29T07:14:12.856Z,21.58
2022-07-29T07:16:41.018Z,22.60
2022-07-29T07:19:09.300Z,23.52
2022-07-29T07:21:37.406Z,22.43
2022-07-29T07:24:05.833Z,22.24
2022-07-29T07:26:34.185Z,22.20
2022-07-29T07:29:02.350Z,22.51
2022-07-29T07:31:33.072Z,22.11
2022-07-29T07:34:03.734Z,22.24
2022-07-29T07:36:31.804Z,23.34
2022-07-29T07:38:59.892Z,22.87
2022-07-29T07:41:27.922Z,23.53
2022-07-29T07:44:00.955Z,23.69
2022-07-29T07:46:28.991Z,22.57
2022-07-29T07:48:58.483Z,22.44
2022-07-29T07:51:26.658Z,23.19
2022-07-29T07:53:54.955Z,23.81
2022-07-29T07:56:23.036Z,23.06
2022-07-29T07:58:51.096Z,22.72
2022-07-29T08:01:20.625Z,24.01
2022-07-29T08:03:48.763Z,24.54
2022-07-29T08:06:18.278Z,24.74
2022-07-29T08:08:46.345Z,23.49
2022-07-29T08:11:14.505Z,24.79
2022-07-29T08:13:42.749Z,24.71
2022-07-29T08:16:14.267Z,24.63
2022-07-29T08:18:43.228Z,24.73
2022-07-29T08:21:11.311Z,23.99
2022-07-29T08:23:56.188Z,24.52
2022-07-29T08:26:27.914Z,24.62
2022-07-29T08:28:55.983Z,24.65
2022-07-29T08:31:26.471Z,24.58
2022-07-29T08:33:54.661Z,23.79
2022-07-29T08:36:23.022Z,23.86
2022-07-29T08:38:52.663Z,25.29
2022-07-29T08:41:21.047Z,24.73
2022-07-29T08:43:49.547Z,24.76
2022-07-29T08:46:18.225Z,25.28
2022-07-29T08:48:47.154Z,25.24
2022-07-29T08:51:16.046Z,25.43
2022-07-29T08:53:44.907Z,25.21
2022-07-29T08:56:15.246Z,25.38
2022-07-29T08:58:43.553Z,25.20
2022-07-29T09:01:18.638Z,25.23
2022-07-29T09:03:48.308Z,25.57
2022-07-29T09:06:16.885Z,24.96
2022-07-29T09:08:45.776Z,25.56
2022-07-29T09:11:15.347Z,25.85
2022-07-29T09:13:43.512Z,25.74
2022-07-29T09:16:11.642Z,25.89
2022-07-29T09:18:40.996Z,25.72
2022-07-29T09:21:27.742Z,25.29
2022-07-29T09:24:05.913Z,25.66
2022-07-29T09:26:36.264Z,25.79
2022-07-29T09:29:10.513Z,26.05
2022-07-29T09:31:39.879Z,26.37
2022-07-29T09:34:09.383Z,26.23
2022-07-29T09:36:40.917Z,26.50
2022-07-29T09:39:09.428Z,26.56
2022-07-29T09:41:49.004Z,25.87
2022-07-29T09:44:17.623Z,26.08
2022-07-29T09:46:59.109Z,26.10
2022-07-29T09:49:27.529Z,26.51
2022-07-29T09:52:03.014Z,26.56
2022-07-29T09:54:37.447Z,26.23
2022-07-29T09:57:07.742Z,26.22
2022-07-29T09:59:36.193Z,26.26
2022-07-29T10:02:23.928Z,26.12
2022-07-29T10:04:52.127Z,26.18
2022-07-29T10:07:20.508Z,26.41
2022-07-29T10:09:51.855Z,26.80
2022-07-29T10:12:21.283Z,26.33
2022-07-29T10:14:52.683Z,26.54
2022-07-29T10:17:21.110Z,26.34
2022-07-29T10:19:50.337Z,27.00
2022-07-29T10:22:43.356Z,26.65
2022-07-29T10:25:06.785Z,27.11
2022-07-29T10:27:36.495Z,26.74
2022-07-29T10:30:05.481Z,26.99
2022-07-29T10:32:41.330Z,27.29
2022-07-29T10:35:23.357Z,27.43
2022-07-29T10:38:16.522Z,27.51
2022-07-29T10:44:00.150Z,26.92
2022-07-29T10:46:28.942Z,26.95
2022-07-29T10:49:09.927Z,27.53
2022-07-29T10:51:59.685Z,26.99
2022-07-29T10:54:39.698Z,26.80
2022-07-29T10:57:20.255Z,27.17
2022-07-29T11:03:52.424Z,27.53
2022-07-29T11:10:27.038Z,27.39
2022-07-29T11:13:02.133Z,27.29
2022-07-29T11:15:31.676Z,27.81
2022-07-29T11:18:15.126Z,27.46
2022-07-29T11:20:48.261Z,28.05
2022-07-29T11:23:33.339Z,27.66
2022-07-29T11:26:21.122Z,28.27
2022-07-29T11:28:53.313Z,28.43
2022-07-29T11:31:33.523Z,28.40
2022-07-29T11:34:17.334Z,28.34
2022-07-29T11:37:07.811Z,28.55
2022-07-29T11:39:37.817Z,28.19
2022-07-29T11:42:28.257Z,28.20
2022-07-29T11:45:42.082Z,28.88
2022-07-29T11:47:55.493Z,28.50
2022-07-29T11:50:37.181Z,28.54
2022-07-29T11:53:11.310Z,28.36
2022-07-29T11:55:51.105Z,28.72
2022-07-29T11:58:25.111Z,28.53
2022-07-29T12:00:55.272Z,28.46
2022-07-29T12:06:17.487Z,27.98
2022-07-29T12:08:47.373Z,28.39
2022-07-29T12:11:21.678Z,28.14
2022-07-29T12:13:50.681Z,27.84
2022-07-29T12:16:25.767Z,28.18
2022-07-29T12:19:04.263Z,27.85
2022-07-29T12:21:49.411Z,27.79
2022-07-29T12:24:26.701Z,27.68
2022-07-29T12:26:57.439Z,27.62
2022-07-29T12:29:34.857Z,27.31
2022-07-29T12:32:04.639Z,27.28
2022-07-29T12:34:35.291Z,27.35
2022-07-29T12:37:04.423Z,27.10
2022-07-29T12:39:32.831Z,27.42
2022-07-29T12:42:04.033Z,27.88
2022-07-29T12:44:45.483Z,27.52
2022-07-29T12:47:13.568Z,27.28
2022-07-29T12:49:44.104Z,27.41
2022-07-29T12:52:28.435Z,27.46
2022-07-29T12:54:56.527Z,27.90
2022-07-29T12:57:26.038Z,28.07
2022-07-29T13:00:08.735Z,27.64
2022-07-29T13:02:37.574Z,27.63
2022-07-29T13:05:07.147Z,27.43
2022-07-29T13:07:55.192Z,27.76
2022-07-29T13:10:25.788Z,27.75
2022-07-29T13:13:05.059Z,28.08
2022-07-29T13:15:33.331Z,28.05
2022-07-29T13:18:04.743Z,28.19
2022-07-29T13:20:33.198Z,27.96
2022-07-29T13:23:02.010Z,27.75
2022-07-29T13:25:31.386Z,27.34
2022-07-29T13:28:00.057Z,27.55
2022-07-29T13:30:30.110Z,28.16
2022-07-29T13:32:58.333Z,28.04
2022-07-29T13:35:30.661Z,28.08
2022-07-29T13:37:58.796Z,28.07
2022-07-29T13:40:27.289Z,27.68
2022-07-29T13:42:55.387Z,27.91
2022-07-29T13:45:25.548Z,27.61
2022-07-29T13:48:00.517Z,27.46
2022-07-29T13:50:28.611Z,27.40
2022-07-29T13:52:56.725Z,27.47
2022-07-29T13:55:24.842Z,27.66
2022-07-29T13:57:52.986Z,27.38
2022-07-29T14:00:21.070Z,27.64
2022-07-29T14:02:49.184Z,27.53
2022-07-29T14:05:18.593Z,28.07
2022-07-29T14:07:46.673Z,28.04
2022-07-29T14:10:18.461Z,28.41
2022-07-29T14:12:48.176Z,28.03
2022-07-29T14:15:16.275Z,28.04
2022-07-29T14:17:44.368Z,28.00
2022-07-29T14:20:16.473Z,28.39
2022-07-29T14:22:49.348Z,27.84
2022-07-29T14:25:21.227Z,27.85
2022-07-29T14:27:51.736Z,27.64
2022-07-29T14:30:19.918Z,27.92
2022-07-29T14:32:48.363Z,27.89
2022-07-29T14:35:16.651Z,28.01
2022-07-29T14:37:44.734Z,28.00
2022-07-29T14:40:14.228Z,27.58
2022-07-29T14:42:42.465Z,27.34
2022-07-29T14:45:11.318Z,27.71
2022-07-29T14:47:39.675Z,27.59
2022-07-29T14:50:08.241Z,27.54
2022-07-29T14:52:36.803Z,27.52
2022-07-29T14:55:05.438Z,27.80
2022-07-29T14:57:46.241Z,27.65
2022-07-29T15:00:14.542Z,27.52
2022-07-29T15:03:01.005Z,27.34
2022-07-29T15:05:30.238Z,27.69
2022-07-29T15:07:58.394Z,27.49
2022-07-29T15:10:27.183Z,27.54
2022-07-29T15:12:56.743Z,27.52
2022-07-29T15:15:24.982Z,27.56
2022-07-29T15:17:53.083Z,27.65
2022-07-29T15:20:22.255Z,27.36
2022-07-29T15:22:50.328Z,27.10
2022-07-29T15:25:18.466Z,27.30
2022-07-29T15:27:49.738Z,27.27
2022-07-29T15:30:32.509Z,27.24
2022-07-29T15:33:02.056Z,27.11
2022-07-29T15:35:30.123Z,26.88
2022-07-29T15:38:00.773Z,27.13
2022-07-29T15:40:28.985Z,27.15
2022-07-29T15:42:57.026Z,27.16
2022-07-29T15:45:26.644Z,27.23
2022-07-29T15:48:00.181Z,27.16
2022-07-29T15:50:28.310Z,27.06
2022-07-29T15:52:56.473Z,27.10
2022-07-29T15:55:27.365Z,27.10
2022-07-29T15:58:00.275Z,26.86
2022-07-29T16:00:30.221Z,27.00
2022-07-29T16:02:58.530Z,26.97
2022-07-29T16:05:29.527Z,27.14
2022-07-29T16:08:00.819Z,26.98
2022-07-29T16:10:29.027Z,27.08
2022-07-29T16:12:59.368Z,27.01
2022-07-29T16:15:27.453Z,26.74
2022-07-29T16:17:56.892Z,27.04
2022-07-29T16:20:25.376Z,27.08
2022-07-29T16:22:53.475Z,27.13
2022-07-29T16:25:29.575Z,27.53
2022-07-29T16:28:06.713Z,27.43
2022-07-29T16:30:35.467Z,27.67
2022-07-29T16:33:08.230Z,27.74
2022-07-29T16:35:39.207Z,27.45
2022-07-29T16:38:08.100Z,27.31
2022-07-29T16:40:36.244Z,27.61
2022-07-29T16:43:04.382Z,27.34
2022-07-29T16:45:45.511Z,27.57
2022-07-29T16:48:18.086Z,27.58
2022-07-29T16:50:46.932Z,27.47
2022-07-29T16:53:15.172Z,27.82
2022-07-29T16:55:43.294Z,28.00
2022-07-29T16:58:12.020Z,27.36
2022-07-29T17:00:40.317Z,27.52
2022-07-29T17:03:08.490Z,27.78
2022-07-29T17:05:52.583Z,28.12
2022-07-29T17:08:22.800Z,27.39
2022-07-29T17:10:51.107Z,27.66
2022-07-29T17:13:21.786Z,27.36
2022-07-29T17:15:49.933Z,27.29
2022-07-29T17:18:18.081Z,27.24
2022-07-29T17:20:47.640Z,27.37
2022-07-29T17:23:15.711Z,27.55
2022-07-29T17:25:43.861Z,27.14
2022-07-29T17:28:11.965Z,26.88
2022-07-29T17:30:40.131Z,26.86
2022-07-29T17:33:08.229Z,26.67
2022-07-29T17:35:54.086Z,26.50
2022-07-29T17:38:23.553Z,26.55
2022-07-29T17:40:51.667Z,26.91
2022-07-29T17:43:19.787Z,26.98
2022-07-29T17:45:49.469Z,27.07
2022-07-29T17:48:19.737Z,26.86
2022-07-29T17:50:47.969Z,26.95
2022-07-29T17:53:16.886Z,26.92
2022-07-29T17:55:50.801Z,26.70
2022-07-29T17:58:19.446Z,26.65
2022-07-29T18:00:48.174Z,26.51
2022-07-29T18:03:16.795Z,26.43
2022-07-29T18:05:48.131Z,26.65
2022-07-29T18:08:16.934Z,26.68
2022-07-29T18:10:46.373Z,26.75
2022-07-29T18:13:17.846Z,26.34
2022-07-29T18:15:46.543Z,26.53
2022-07-29T18:18:14.930Z,26.71
2022-07-29T18:20:43.759Z,26.41
2022-07-29T18:23:14.493Z,26.31
2022-07-29T18:25:42.991Z,26.24
2022-07-29T18:28:11.484Z,26.06
2022-07-29T18:30:46.108Z,26.08
2022-07-29T18:33:21.592Z,25.94
2022-07-29T18:36:07.698Z,25.96
2022-07-29T18:38:40.829Z,25.89
2022-07-29T18:41:09.432Z,25.79
2022-07-29T18:43:37.602Z,25.84
2022-07-29T18:46:07.276Z,25.40
2022-07-29T18:48:35.556Z,25.43
2022-07-29T18:51:09.339Z,25.39
2022-07-29T18:53:38.828Z,25.10
2022-07-29T18:56:06.978Z,24.89
2022-07-29T18:58:38.215Z,24.87
2022-07-29T19:01:08.341Z,24.69
2022-07-29T19:03:37.185Z,24.49
2022-07-29T19:06:06.774Z,24.53
2022-07-29T19:08:37.491Z,24.88
2022-07-29T19:11:05.535Z,24.88
2022-07-29T19:13:35.521Z,24.59
2022-07-29T19:16:03.779Z,24.66
2022-07-29T19:18:36.582Z,24.63
2022-07-29T19:21:06.696Z,24.53
2022-07-29T19:24:06.024Z,24.61
2022-07-29T19:26:23.085Z,24.54
2022-07-29T19:28:54.591Z,24.72
2022-07-29T19:31:22.969Z,24.89
2022-07-29T19:33:52.952Z,24.51
2022-07-29T19:36:21.235Z,24.44
2022-07-29T19:38:49.303Z,23.88
2022-07-29T19:41:17.551Z,23.48
2022-07-29T19:43:52.207Z,23.23
2022-07-29T19:46:23.849Z,23.12
2022-07-29T19:48:54.023Z,23.07
2022-07-29T19:51:22.474Z,23.01
2022-07-29T19:53:50.674Z,22.82
2022-07-29T19:56:19.148Z,22.77
2022-07-29T19:58:47.570Z,22.67
2022-07-29T20:01:16.652Z,22.31
2022-07-29T20:03:47.180Z,22.26
2022-07-29T20:06:19.018Z,22.24
2022-07-29T20:08:47.173Z,22.21
2022-07-29T20:11:15.261Z,21.96
2022-07-29T20:13:43.352Z,21.92
2022-07-29T20:16:11.585Z,21.74
2022-07-29T20:18:40.217Z,21.70
2022-07-29T20:21:08.340Z,21.57
2022-07-29T20:23:37.829Z,21.55
2022-07-29T20:26:09.222Z,21.38
2022-07-29T20:28:40.269Z,21.57
2022-07-29T20:31:08.753Z,21.35
2022-07-29T20:33:37.024Z,21.25
2022-07-29T20:36:05.502Z,21.22
2022-07-29T20:38:33.804Z,21.22
2022-07-29T20:41:03.316Z,21.11
2022-07-29T20:43:31.579Z,21.09
2022-07-29T20:46:07.039Z,20.80
2022-07-29T20:48:37.365Z,20.82
2022-07-29T20:51:05.494Z,20.70
2022-07-29T20:53:33.823Z,20.71
2022-07-29T20:56:03.361Z,20.71
2022-07-29T20:58:32.594Z,20.60
2022-07-29T21:01:00.723Z,20.70
2022-07-29T21:03:28.789Z,20.42
2022-07-29T21:05:56.834Z,20.40
2022-07-29T21:08:27.623Z,20.41
2022-07-29T21:10:56.031Z,20.25
2022-07-29T21:13:25.550Z,20.34
2022-07-29T21:15:57.901Z,20.32
2022-07-29T21:18:30.592Z,20.26
2022-07-29T21:21:01.387Z,20.33
2022-07-29T21:23:31.615Z,20.50
2022-07-29T21:26:00.013Z,20.36
2022-07-29T21:28:30.373Z,20.30
2022-07-29T21:31:01.782Z,20.05
2022-07-29T21:33:30.657Z,20.18
2022-07-29T21:36:20.187Z,20.05
2022-07-29T21:38:46.721Z,20.09
2022-07-29T21:41:15.405Z,20.20
2022-07-29T21:43:46.012Z,19.95
2022-07-29T21:46:16.490Z,20.34
2022-07-29T21:48:44.831Z,20.31
2022-07-29T21:51:12.931Z,19.92
2022-07-29T21:53:43.311Z,19.82
2022-07-29T21:56:14.603Z,19.91
2022-07-29T21:58:43.254Z,20.01
2022-07-29T22:02:38.779Z,20.27
2022-07-29T22:05:07.151Z,19.89
2022-07-29T22:07:54.330Z,19.73
2022-07-29T22:10:23.359Z,20.07
2022-07-29T22:12:51.899Z,19.96
2022-07-29T22:15:20.189Z,19.94
2022-07-29T22:17:49.952Z,20.08
2022-07-29T22:20:18.115Z,19.95
2022-07-29T22:22:46.646Z,19.76
2022-07-29T22:25:14.705Z,19.60
2022-07-29T22:27:42.749Z,19.70
2022-07-29T22:30:11.973Z,19.85
2022-07-29T22:32:40.179Z,19.85
2022-07-29T22:35:09.783Z,19.92
2022-07-29T22:37:42.992Z,19.58
2022-07-29T22:40:11.738Z,19.08
2022-07-29T22:42:40.669Z,19.71
2022-07-29T22:45:09.994Z,19.71
2022-07-29T22:47:45.683Z,19.56
2022-07-29T22:50:17.755Z,19.73
2022-07-29T22:52:46.092Z,19.50
2022-07-29T22:55:14.336Z,19.43
2022-07-29T22:57:42.387Z,19.23
2022-07-29T23:00:13.497Z,19.10
2022-07-29T23:02:42.141Z,19.15
2022-07-29T23:05:11.177Z,19.16
2022-07-29T23:07:40.799Z,19.10
2022-07-29T23:10:09.280Z,18.98
2022-07-29T23:12:37.342Z,18.85
2022-07-29T23:15:08.260Z,18.83
2022-07-29T23:17:36.913Z,18.94
2022-07-29T23:20:06.426Z,18.48
2022-07-29T23:22:34.523Z,18.60
2022-07-29T23:25:03.972Z,18.76
2022-07-29T23:27:32.019Z,18.77
2022-07-29T23:30:02.634Z,18.50
2022-07-29T23:32:30.725Z,18.14
2022-07-29T23:34:58.768Z,18.51
2022-07-29T23:37:26.956Z,18.60
2022-07-29T23:39:56.014Z,18.22
2022-07-29T23:42:25.404Z,18.26
2022-07-29T23:44:53.459Z,18.36
2022-07-29T23:47:21.542Z,18.26
2022-07-29T23:49:51.667Z,18.33
2022-07-29T23:52:19.793Z,18.33
2022-07-29T23:54:47.941Z,18.72
2022-07-29T23:57:18.270Z,18.49
2022-07-29T23:59:47.657Z,18.42
